Aviation Digital Data Service (ADDS)

Output produced by METARs form (1810 UTC 14 August 2018)
found at http://www.aviationweather.gov/adds/metars/
 
FOOG 141700Z 20008KT 9999 SCT011 26/22 Q1013
TAF FOOG 141700Z 1418/1518 22010KT 9999 SCT010 BKN033 
     PROB30 
     TEMPO 1506/1508 3000 BR BKN006 OVC033
       
FOOL 141800Z 22006KT 180V250 9999 FEW015 25/22 Q1014 NOSIG
TAF FOOL 141700Z 1418/1524 22006KT 9999 SCT014 
     PROB30 
     TEMPO 1505/1509 4000 RADZ BKN008 OVC030
       
FOON 141700Z VRB02KT 9999 FEW016 FEW020CB 27/22 Q1013
FOON 141700Z VRB02KT 9999 FEW016 FEW020CB 27/22 Q1013
FOOG 141700Z 20008KT 9999 SCT011 26/22 Q1013
TAF FOOG 141700Z 1418/1518 22010KT 9999 SCT010 BKN033 
     PROB30 
     TEMPO 1506/1508 3000 BR BKN006 OVC033
       
FOOL 141800Z 22006KT 180V250 9999 FEW015 25/22 Q1014 NOSIG
TAF FOOL 141700Z 1418/1524 22006KT 9999 SCT014 
     PROB30 
     TEMPO 1505/1509 4000 RADZ BKN008 OVC030
       
FOON 141700Z VRB02KT 9999 FEW016 FEW020CB 27/22 Q1013
FOOL 141800Z 22006KT 180V250 9999 FEW015 25/22 Q1014 NOSIG
TAF FOOL 141700Z 1418/1524 22006KT 9999 SCT014 
     PROB30 
     TEMPO 1505/1509 4000 RADZ BKN008 OVC030
       
FOOG 141700Z 20008KT 9999 SCT011 26/22 Q1013
TAF FOOG 141700Z 1418/1518 22010KT 9999 SCT010 BKN033 
     PROB30 
     TEMPO 1506/1508 3000 BR BKN006 OVC033